createdAt,value
2018-02-08T00:01:10.408Z,-2.4
2018-02-08T00:02:35.335Z,-2.4
2018-02-08T00:03:55.173Z,-2.4
2018-02-08T00:05:17.551Z,-2.4
2018-02-08T00:06:39.957Z,-2.5
2018-02-08T00:07:59.836Z,-2.5
2018-02-08T00:09:24.732Z,-2.6
2018-02-08T00:10:44.576Z,-2.6
2018-02-08T00:12:12.052Z,-2.5
2018-02-08T00:13:31.921Z,-2.6
2018-02-08T00:14:51.754Z,-2.6
2018-02-08T00:16:14.122Z,-2.5
2018-02-08T00:17:34.008Z,-2.4
2018-02-08T00:18:53.844Z,-2.5
2018-02-08T00:20:21.308Z,-2.5
2018-02-08T00:21:43.667Z,-2.4
2018-02-08T00:23:03.506Z,-2.3
2018-02-08T00:24:23.348Z,-2.3
2018-02-08T00:25:45.774Z,-2.3
2018-02-08T00:27:05.603Z,-2.4
2018-02-08T00:28:33.086Z,-2.4
2018-02-08T00:29:52.922Z,-2.5
2018-02-08T00:31:12.755Z,-2.5
2018-02-08T00:32:35.128Z,-2.4
2018-02-08T00:33:55.017Z,-2.4
2018-02-08T00:35:19.905Z,-2.5
2018-02-08T00:36:39.810Z,-2.6
2018-02-08T00:37:59.645Z,-2.6
2018-02-08T00:39:19.481Z,-2.5
2018-02-08T00:40:39.346Z,-2.5
2018-02-08T00:42:01.749Z,-2.4
2018-02-08T00:43:21.629Z,-2.4
2018-02-08T00:44:43.990Z,-2.3
2018-02-08T00:46:03.842Z,-2.3
2018-02-08T00:47:23.692Z,-2.4
2018-02-08T00:48:46.076Z,-2.4
2018-02-08T00:50:11.033Z,-2.4
2018-02-08T00:51:30.898Z,-2.4
2018-02-08T00:52:53.257Z,-2.3
2018-02-08T00:54:13.095Z,-2.4
2018-02-08T00:55:32.933Z,-2.4
2018-02-08T00:56:57.843Z,-2.4
2018-02-08T00:58:20.214Z,-2.4
2018-02-08T00:59:50.206Z,-2.4
2018-02-08T01:01:17.670Z,-2.4
2018-02-08T01:02:42.651Z,-2.4
2018-02-08T01:04:02.486Z,-2.4
2018-02-08T01:05:32.497Z,-2.3
2018-02-08T01:06:54.893Z,-2.3
2018-02-08T01:08:14.740Z,-2.3
2018-02-08T01:09:42.175Z,-2.3
2018-02-08T01:11:02.021Z,-2.2
2018-02-08T01:12:32.021Z,-2.3
2018-02-08T01:13:51.845Z,-2.2
2018-02-08T01:15:11.705Z,-2.3
2018-02-08T01:16:46.731Z,-2.4
2018-02-08T01:18:09.089Z,-2.4
2018-02-08T01:19:33.990Z,-2.4
2018-02-08T01:20:58.943Z,-2.3
2018-02-08T01:22:18.772Z,-2.4
2018-02-08T01:23:41.160Z,-2.4
2018-02-08T01:25:01.016Z,-2.4
2018-02-08T01:26:20.888Z,-2.4
2018-02-08T01:27:40.744Z,-2.3
2018-02-08T01:29:03.105Z,-2.3
2018-02-08T01:30:22.974Z,-2.3
2018-02-08T01:31:58.004Z,-2.4
2018-02-08T01:33:20.367Z,-2.3
2018-02-08T01:34:40.197Z,-2.2
2018-02-08T01:36:10.157Z,-2.3
2018-02-08T01:37:29.990Z,-2.4
2018-02-08T01:39:02.541Z,-2.4
2018-02-08T01:40:22.397Z,-2.4
2018-02-08T01:41:44.773Z,-2.4
2018-02-08T01:43:12.190Z,-2.3
2018-02-08T01:44:32.014Z,-2.4
2018-02-08T01:45:54.416Z,-2.3
2018-02-08T01:47:16.778Z,-2.3
2018-02-08T01:48:39.200Z,-2.3
2018-02-08T01:49:59.044Z,-2.3
2018-02-08T01:51:18.866Z,-2.4
2018-02-08T01:52:41.249Z,-2.4
2018-02-08T01:54:03.614Z,-2.4
2018-02-08T01:55:23.442Z,-2.4
2018-02-08T01:56:45.833Z,-2.4
2018-02-08T01:58:05.672Z,-2.5
2018-02-08T01:59:25.521Z,-2.5
2018-02-08T02:00:47.930Z,-2.5
2018-02-08T02:02:10.317Z,-2.5
2018-02-08T02:03:30.146Z,-2.5
2018-02-08T02:04:50.032Z,-2.6
2018-02-08T02:06:22.548Z,-2.6
2018-02-08T02:07:44.906Z,-2.5
2018-02-08T02:09:04.742Z,-2.5
2018-02-08T02:10:24.566Z,-2.5
2018-02-08T02:11:49.485Z,-2.4
2018-02-08T02:13:09.360Z,-2.4
2018-02-08T02:14:29.212Z,-2.4
2018-02-08T02:15:49.041Z,-2.5
2018-02-08T02:17:11.478Z,-2.4
2018-02-08T02:18:31.398Z,-2.3
2018-02-08T02:19:51.269Z,-2.4
2018-02-08T02:21:11.192Z,-2.3
2018-02-08T02:22:31.097Z,-2.4
2018-02-08T02:23:50.995Z,-2.4
2018-02-08T02:25:15.910Z,-2.3
2018-02-08T02:26:40.886Z,-2.4
2018-02-08T02:28:05.793Z,-2.5
2018-02-08T02:29:25.632Z,-2.4
2018-02-08T02:30:45.489Z,-2.4
2018-02-08T02:32:05.361Z,-2.4
2018-02-08T02:33:25.212Z,-2.5
2018-02-08T02:34:50.156Z,-2.4
2018-02-08T02:36:12.524Z,-2.4
2018-02-08T02:37:34.883Z,-2.4
2018-02-08T02:38:54.716Z,-2.4
2018-02-08T02:40:24.672Z,-2.4
2018-02-08T02:41:44.526Z,-2.5
2018-02-08T02:43:04.405Z,-2.5
2018-02-08T02:44:24.281Z,-2.4
2018-02-08T02:45:56.783Z,-2.4
2018-02-08T02:47:16.629Z,-2.4
2018-02-08T02:48:36.530Z,-2.4
2018-02-08T02:49:58.932Z,-2.4
2018-02-08T02:51:18.803Z,-2.5
2018-02-08T02:52:41.199Z,-2.5
2018-02-08T02:54:03.557Z,-2.4
2018-02-08T02:55:33.516Z,-2.4
2018-02-08T02:56:53.382Z,-2.4
2018-02-08T02:58:13.243Z,-2.4
2018-02-08T02:59:35.596Z,-2.5
2018-02-08T03:00:57.996Z,-2.5
2018-02-08T03:02:22.886Z,-2.6
2018-02-08T03:03:45.324Z,-2.6
2018-02-08T03:05:07.708Z,-2.6
2018-02-08T03:06:37.666Z,-2.7
2018-02-08T03:08:02.560Z,-2.7
2018-02-08T03:09:27.458Z,-2.6
2018-02-08T03:10:47.332Z,-2.6
2018-02-08T03:12:07.209Z,-2.6
2018-02-08T03:13:27.038Z,-2.6
2018-02-08T03:14:51.937Z,-2.5
2018-02-08T03:16:11.816Z,-2.5
2018-02-08T03:17:34.178Z,-2.4
2018-02-08T03:18:56.572Z,-2.4
2018-02-08T03:20:16.445Z,-2.5
2018-02-08T03:21:36.306Z,-2.6
2018-02-08T03:22:58.670Z,-2.6
2018-02-08T03:24:23.596Z,-2.6
2018-02-08T03:25:43.416Z,-2.6
2018-02-08T03:27:05.830Z,-2.6
2018-02-08T03:28:40.899Z,-2.7
2018-02-08T03:30:05.805Z,-2.7
2018-02-08T03:31:30.723Z,-2.6
2018-02-08T03:32:55.633Z,-2.6
2018-02-08T03:34:18.026Z,-2.6
2018-02-08T03:35:37.859Z,-2.7
2018-02-08T03:37:00.206Z,-2.7
2018-02-08T03:38:22.547Z,-2.6
2018-02-08T03:39:49.969Z,-2.6
2018-02-08T03:41:09.803Z,-2.5
2018-02-08T03:42:32.159Z,-2.5
2018-02-08T03:43:54.512Z,-2.5
2018-02-08T03:45:16.914Z,-2.5
2018-02-08T03:46:39.302Z,-2.6
2018-02-08T03:47:59.116Z,-2.5
2018-02-08T03:49:26.567Z,-2.5
2018-02-08T03:50:46.425Z,-2.6
2018-02-08T03:52:06.266Z,-2.5
2018-02-08T03:53:26.117Z,-2.5
2018-02-08T03:54:45.974Z,-2.5
2018-02-08T03:56:08.319Z,-2.5
2018-02-08T03:57:28.141Z,-2.5
2018-02-08T03:58:47.971Z,-2.5
2018-02-08T04:00:10.330Z,-2.5
2018-02-08T04:01:37.818Z,-2.5
2018-02-08T04:02:57.699Z,-2.5
2018-02-08T04:04:22.583Z,-2.4
2018-02-08T04:05:44.953Z,-2.4
2018-02-08T04:07:04.772Z,-2.4
2018-02-08T04:08:32.207Z,-2.4
2018-02-08T04:09:59.654Z,-2.4
2018-02-08T04:11:27.100Z,-2.4
2018-02-08T04:12:46.932Z,-2.5
2018-02-08T04:14:06.814Z,-2.5
2018-02-08T04:15:26.659Z,-2.5
2018-02-08T04:16:46.508Z,-2.4
2018-02-08T04:18:11.455Z,-2.4
2018-02-08T04:19:36.426Z,-2.4
2018-02-08T04:20:58.773Z,-2.4
2018-02-08T04:22:21.169Z,-2.4
2018-02-08T04:23:41.021Z,-2.4
2018-02-08T04:25:00.887Z,-2.5
2018-02-08T04:26:20.727Z,-2.4
2018-02-08T04:27:50.717Z,-2.4
2018-02-08T04:29:15.641Z,-2.3
2018-02-08T04:30:35.495Z,-2.4
2018-02-08T04:32:02.956Z,-2.4
2018-02-08T04:33:25.356Z,-2.4
2018-02-08T04:34:45.192Z,-2.4
2018-02-08T04:36:05.005Z,-2.5
2018-02-08T04:37:24.841Z,-2.6
2018-02-08T04:38:44.690Z,-2.7
2018-02-08T04:40:09.622Z,-2.8
2018-02-08T04:41:29.474Z,-2.9
2018-02-08T04:42:51.873Z,-2.9
2018-02-08T04:44:11.716Z,-3
2018-02-08T04:45:31.615Z,-3
2018-02-08T04:46:53.967Z,-3
2018-02-08T04:48:16.362Z,-3.1
2018-02-08T04:49:38.725Z,-3.1
2018-02-08T04:50:58.569Z,-3.2
2018-02-08T04:52:18.385Z,-3.1
2018-02-08T04:53:38.211Z,-3.1
2018-02-08T04:55:00.569Z,-3.2
2018-02-08T04:56:30.591Z,-3.2
2018-02-08T04:57:53.002Z,-3.3
2018-02-08T04:59:12.819Z,-3.3
2018-02-08T05:00:37.716Z,-3.3
2018-02-08T05:01:57.567Z,-3.3
2018-02-08T05:03:19.943Z,-3.3
2018-02-08T05:04:39.767Z,-3.4
2018-02-08T05:06:12.260Z,-3.4
2018-02-08T05:07:32.124Z,-3.3
2018-02-08T05:08:54.499Z,-3.3
2018-02-08T05:10:14.356Z,-3.2
2018-02-08T05:11:34.229Z,-3.2
2018-02-08T05:13:04.195Z,-3.1
2018-02-08T05:14:29.121Z,-3.1
2018-02-08T05:15:51.497Z,-3
2018-02-08T05:17:13.893Z,-3
2018-02-08T05:18:33.709Z,-3
2018-02-08T05:19:53.543Z,-3
2018-02-08T05:21:15.968Z,-3
2018-02-08T05:22:35.823Z,-3.1
2018-02-08T05:24:03.248Z,-3.1
2018-02-08T05:25:30.709Z,-3.1
2018-02-08T05:26:53.055Z,-3.1
2018-02-08T05:28:12.902Z,-3.1
2018-02-08T05:29:32.779Z,-3.2
2018-02-08T05:30:52.617Z,-3.2
2018-02-08T05:32:12.493Z,-3.3
2018-02-08T05:33:34.893Z,-3.3
2018-02-08T05:34:54.717Z,-3.3
2018-02-08T05:36:14.551Z,-3.3
2018-02-08T05:37:34.399Z,-3.4
2018-02-08T05:38:54.277Z,-3.4
2018-02-08T05:40:26.795Z,-3.4
2018-02-08T05:41:59.291Z,-3.4
2018-02-08T05:43:19.148Z,-3.4
2018-02-08T05:44:44.039Z,-3.5
2018-02-08T05:46:03.863Z,-3.6
2018-02-08T05:47:26.249Z,-3.6
2018-02-08T05:48:51.219Z,-3.6
2018-02-08T05:50:13.602Z,-3.5
2018-02-08T05:51:46.122Z,-3.5
2018-02-08T05:53:13.530Z,-3.5
2018-02-08T05:54:38.464Z,-3.5
2018-02-08T05:56:00.846Z,-3.4
2018-02-08T05:57:20.680Z,-3.4
2018-02-08T05:58:45.619Z,-3.5
2018-02-08T06:00:08.014Z,-3.4
2018-02-08T06:01:27.860Z,-3.4
2018-02-08T06:02:47.682Z,-3.4
2018-02-08T06:04:12.558Z,-3.4
2018-02-08T06:05:40.033Z,-3.3
2018-02-08T06:07:04.925Z,-3.3
2018-02-08T06:08:24.746Z,-3.2
2018-02-08T06:09:44.573Z,-3.2
2018-02-08T06:11:04.451Z,-3.2
2018-02-08T06:12:24.274Z,-3.1
2018-02-08T06:13:46.671Z,-3
2018-02-08T06:15:06.518Z,-2.9
2018-02-08T06:16:26.366Z,-2.9
2018-02-08T06:17:46.230Z,-2.8
2018-02-08T06:19:06.096Z,-2.9
2018-02-08T06:20:28.457Z,-3
2018-02-08T06:21:53.373Z,-3.1
2018-02-08T06:23:33.463Z,-3
2018-02-08T06:24:53.336Z,-3
2018-02-08T06:26:13.212Z,-3
2018-02-08T06:27:38.101Z,-2.9
2018-02-08T06:28:57.965Z,-2.8
2018-02-08T06:30:17.828Z,-2.8
2018-02-08T06:31:40.197Z,-2.9
2018-02-08T06:33:02.544Z,-2.9
2018-02-08T06:34:22.366Z,-2.8
2018-02-08T06:35:44.711Z,-2.8
2018-02-08T06:37:04.577Z,-2.7
2018-02-08T06:38:24.408Z,-2.7
2018-02-08T06:39:44.225Z,-2.7
2018-02-08T06:41:04.074Z,-2.8
2018-02-08T06:42:26.482Z,-2.7
2018-02-08T06:43:46.381Z,-2.7
2018-02-08T06:45:06.254Z,-2.7
2018-02-08T06:46:26.104Z,-2.7
2018-02-08T06:47:45.958Z,-2.6
2018-02-08T06:49:10.916Z,-2.6
2018-02-08T06:50:35.840Z,-2.6
2018-02-08T06:51:55.670Z,-2.7
2018-02-08T06:53:15.538Z,-2.6
2018-02-08T06:54:37.954Z,-2.7
2018-02-08T06:55:57.779Z,-2.6
2018-02-08T06:57:17.604Z,-2.6
2018-02-08T06:58:37.437Z,-2.7
2018-02-08T06:59:57.314Z,-2.6
2018-02-08T07:01:19.716Z,-2.5
2018-02-08T07:02:42.093Z,-2.4
2018-02-08T07:04:06.978Z,-2.4
2018-02-08T07:05:31.921Z,-2.4
2018-02-08T07:06:54.271Z,-2.4
2018-02-08T07:08:16.666Z,-2.4
2018-02-08T07:09:39.045Z,-2.3
2018-02-08T07:10:58.872Z,-2.2
2018-02-08T07:12:23.775Z,-2.2
2018-02-08T07:13:46.152Z,-2.3
2018-02-08T07:15:08.497Z,-2.2
2018-02-08T07:16:30.908Z,-2.2
2018-02-08T07:17:50.759Z,-2.3
2018-02-08T07:19:13.146Z,-2.4
2018-02-08T07:20:43.126Z,-2.4
2018-02-08T07:22:13.068Z,-2.4
2018-02-08T07:23:32.888Z,-2.4
2018-02-08T07:24:52.743Z,-2.5
2018-02-08T07:26:12.625Z,-2.5
2018-02-08T07:27:37.523Z,-2.6
2018-02-08T07:28:59.905Z,-2.7
2018-02-08T07:30:22.261Z,-2.7
2018-02-08T07:31:44.669Z,-2.8
2018-02-08T07:33:07.027Z,-2.8
2018-02-08T07:34:29.384Z,-2.8
2018-02-08T07:35:49.209Z,-2.7
2018-02-08T07:37:14.098Z,-2.7
2018-02-08T07:38:39.045Z,-2.7
2018-02-08T07:40:09.000Z,-2.6
2018-02-08T07:41:31.385Z,-2.6
2018-02-08T07:42:56.299Z,-2.5
2018-02-08T07:44:16.181Z,-2.4
2018-02-08T07:45:36.061Z,-2.3
2018-02-08T07:47:06.052Z,-2.2
2018-02-08T07:48:25.946Z,-2
2018-02-08T07:49:45.863Z,-1.9
2018-02-08T07:51:08.232Z,-1.8
2018-02-08T07:52:28.092Z,-1.7
2018-02-08T07:53:47.922Z,-1.7
2018-02-08T07:55:07.738Z,-1.5
2018-02-08T07:56:27.575Z,-1.3
2018-02-08T07:57:47.429Z,-1.2
2018-02-08T07:59:09.791Z,-1.1
2018-02-08T08:00:29.631Z,-1.2
2018-02-08T08:01:51.983Z,-1.4
2018-02-08T08:03:14.404Z,-1.4
2018-02-08T08:04:34.249Z,-1.4
2018-02-08T08:05:54.069Z,-1.3
2018-02-08T08:07:16.463Z,-1.2
2018-02-08T08:08:36.327Z,-1.3
2018-02-08T08:10:01.249Z,-1.1
2018-02-08T08:11:21.098Z,-1
2018-02-08T08:12:43.445Z,-1
2018-02-08T08:14:03.317Z,-0.6
2018-02-08T08:15:23.193Z,-0.6
2018-02-08T08:16:48.073Z,-0.6
2018-02-08T08:18:07.905Z,-0.5
2018-02-08T08:19:30.270Z,-0.5
2018-02-08T08:20:52.689Z,-0.5
2018-02-08T08:22:15.068Z,-0.3
2018-02-08T08:23:34.907Z,-0.2
2018-02-08T08:24:54.760Z,-0.3
2018-02-08T08:26:14.595Z,-0.2
2018-02-08T08:27:42.069Z,-0.2
2018-02-08T08:29:04.433Z,-0.1
2018-02-08T08:30:24.304Z,-0.1
2018-02-08T08:31:59.352Z,0.1
2018-02-08T08:33:19.151Z,0.2
2018-02-08T08:34:41.541Z,0.3
2018-02-08T08:36:01.398Z,0.4
2018-02-08T08:37:21.229Z,0.3
2018-02-08T08:38:41.075Z,0.2
2018-02-08T08:40:08.478Z,0.2
2018-02-08T08:41:28.331Z,0.1
2018-02-08T08:42:48.127Z,0.1
2018-02-08T08:44:07.965Z,0.3
2018-02-08T08:45:27.777Z,0.3
2018-02-08T08:46:50.109Z,0.3
2018-02-08T08:48:09.959Z,0.4
2018-02-08T08:49:29.771Z,0.5
2018-02-08T08:50:49.588Z,0.5
2018-02-08T08:52:09.450Z,0.6
2018-02-08T08:53:29.264Z,0.5
2018-02-08T08:54:49.071Z,0.6
2018-02-08T08:56:08.927Z,0.6
2018-02-08T08:57:28.744Z,0.6
2018-02-08T08:58:51.121Z,0.6
2018-02-08T09:00:16.022Z,0.8
2018-02-08T09:01:35.861Z,0.7
2018-02-08T09:02:58.197Z,0.9
2018-02-08T09:04:20.552Z,0.8
2018-02-08T09:05:45.476Z,0.7
2018-02-08T09:07:05.339Z,0.8
2018-02-08T09:08:25.140Z,0.9
2018-02-08T09:09:52.561Z,1
2018-02-08T09:11:14.954Z,1
2018-02-08T09:12:34.758Z,0.9
2018-02-08T09:13:59.677Z,0.9
2018-02-08T09:15:19.526Z,0.5
2018-02-08T09:16:39.379Z,0.8
2018-02-08T09:18:01.720Z,0.6
2018-02-08T09:19:21.580Z,0.6
2018-02-08T09:20:41.418Z,0.8
2018-02-08T09:22:01.256Z,0.9
2018-02-08T09:23:33.728Z,1
2018-02-08T09:24:53.561Z,1
2018-02-08T09:26:15.924Z,1.2
2018-02-08T09:27:38.271Z,1.2
2018-02-08T09:29:05.708Z,1.4
2018-02-08T09:30:28.069Z,1.2
2018-02-08T09:31:47.873Z,1.1
2018-02-08T09:33:10.261Z,1.3
2018-02-08T09:34:32.590Z,1.5
2018-02-08T09:35:52.385Z,1.4
2018-02-08T09:37:12.214Z,1.5
2018-02-08T09:38:37.113Z,1.4
2018-02-08T09:39:59.495Z,1.3
2018-02-08T09:41:32.001Z,1.2
2018-02-08T09:42:54.345Z,1.4
2018-02-08T09:44:16.756Z,1.4
2018-02-08T09:45:36.595Z,1.1
2018-02-08T09:46:56.459Z,1
2018-02-08T09:48:16.301Z,1.4
2018-02-08T09:49:36.206Z,1.7
2018-02-08T09:50:58.539Z,2
2018-02-08T09:52:18.366Z,2.2
2018-02-08T09:53:45.845Z,2.2
2018-02-08T09:55:05.759Z,2.2
2018-02-08T09:56:25.627Z,2.3
2018-02-08T09:57:48.034Z,2.7
2018-02-08T09:59:07.853Z,2.4
2018-02-08T10:00:32.726Z,2.5
2018-02-08T10:02:00.129Z,2.6
2018-02-08T10:03:19.936Z,2.5
2018-02-08T10:04:39.738Z,2.2
2018-02-08T10:05:59.567Z,2.3
2018-02-08T10:07:29.566Z,2.3
2018-02-08T10:08:54.439Z,2.3
2018-02-08T10:10:14.316Z,2.4
2018-02-08T10:11:36.670Z,2.6
2018-02-08T10:12:56.549Z,2.7
2018-02-08T10:14:18.924Z,2.6
2018-02-08T10:15:38.724Z,2.8
2018-02-08T10:16:58.536Z,2.8
2018-02-08T10:18:18.364Z,2.7
2018-02-08T10:19:38.219Z,2.8
2018-02-08T10:21:00.559Z,2.7
2018-02-08T10:22:25.485Z,2.7
2018-02-08T10:23:45.328Z,2.7
2018-02-08T10:25:05.154Z,2.6
2018-02-08T10:26:24.974Z,2.7
2018-02-08T10:27:54.962Z,2.8
2018-02-08T10:29:14.807Z,2.9
2018-02-08T10:30:34.669Z,2.7
2018-02-08T10:31:57.024Z,3
2018-02-08T10:33:16.872Z,3.1
2018-02-08T10:34:41.747Z,3.1
2018-02-08T10:36:01.672Z,3.2
2018-02-08T10:37:21.545Z,3.4
2018-02-08T10:38:41.394Z,3.4
2018-02-08T10:40:08.794Z,3.7
2018-02-08T10:41:38.734Z,3.5
2018-02-08T10:42:58.560Z,3.4
2018-02-08T10:44:21.031Z,3.2
2018-02-08T10:45:40.867Z,3.5
2018-02-08T10:47:00.738Z,3.4
2018-02-08T10:48:20.567Z,3.9
2018-02-08T10:49:43.038Z,3.6
2018-02-08T10:51:07.914Z,3.8
2018-02-08T10:52:30.249Z,3.8
2018-02-08T10:54:05.240Z,3.8
2018-02-08T10:55:25.060Z,3.7
2018-02-08T10:56:44.887Z,3.3
2018-02-08T10:58:07.278Z,3.1
2018-02-08T10:59:34.682Z,2.7
2018-02-08T11:00:57.017Z,2.3
2018-02-08T11:02:16.821Z,2.2
2018-02-08T11:03:41.761Z,2.1
2018-02-08T11:05:01.615Z,1.9
2018-02-08T11:06:21.465Z,1.7
2018-02-08T11:07:46.409Z,2.1
2018-02-08T11:09:11.326Z,2.4
2018-02-08T11:10:31.174Z,2.7
2018-02-08T11:11:51.017Z,2.7
2018-02-08T11:13:10.898Z,2.7
2018-02-08T11:14:30.713Z,2.8
2018-02-08T11:15:53.050Z,2.7
2018-02-08T11:17:20.452Z,2.8
2018-02-08T11:18:45.309Z,2.7
2018-02-08T11:20:17.809Z,2.5
2018-02-08T11:21:37.671Z,2.6
2018-02-08T11:22:57.502Z,2.8
2018-02-08T11:24:19.904Z,3
2018-02-08T11:25:44.794Z,2.8
2018-02-08T11:27:04.668Z,2.9
2018-02-08T11:28:24.485Z,3
2018-02-08T11:29:44.326Z,3
2018-02-08T11:31:11.739Z,3
2018-02-08T11:32:34.143Z,3
2018-02-08T11:33:56.557Z,3.3
2018-02-08T11:35:16.431Z,3.5
2018-02-08T11:36:38.779Z,3.8
2018-02-08T11:37:58.580Z,4.2
2018-02-08T11:39:20.945Z,4.1
2018-02-08T11:40:40.808Z,4.2
2018-02-08T11:42:03.134Z,4.2
2018-02-08T11:43:25.530Z,4.1
2018-02-08T11:44:47.895Z,3.8
2018-02-08T11:46:10.247Z,3.7
2018-02-08T11:47:35.130Z,3.7
2018-02-08T11:48:54.932Z,3.8
2018-02-08T11:50:17.285Z,4
2018-02-08T11:51:37.151Z,4.5
2018-02-08T11:53:04.633Z,4.8
2018-02-08T11:54:26.963Z,4.6
2018-02-08T11:55:46.803Z,4.9
2018-02-08T11:57:06.675Z,5.3
2018-02-08T11:58:26.513Z,5.5
2018-02-08T11:59:56.507Z,5.6
2018-02-08T12:01:23.926Z,5.9
2018-02-08T12:02:46.318Z,5.9
2018-02-08T12:04:06.149Z,6.3
2018-02-08T12:05:28.494Z,6.3
2018-02-08T12:06:50.899Z,6.5
2018-02-08T12:08:10.715Z,6.3
2018-02-08T12:09:38.125Z,6.7
2018-02-08T12:10:57.942Z,6.8
2018-02-08T12:12:17.748Z,7.2
2018-02-08T12:13:37.594Z,7.4
2018-02-08T12:14:57.451Z,7.1
2018-02-08T12:16:22.354Z,7.4
2018-02-08T12:17:42.215Z,7.4
2018-02-08T12:19:07.079Z,7.2
2018-02-08T12:20:34.518Z,7.2
2018-02-08T12:21:54.385Z,7.2
2018-02-08T12:23:19.329Z,7.1
2018-02-08T12:24:39.185Z,7.2
2018-02-08T12:26:01.566Z,6.9
2018-02-08T12:27:21.457Z,6.3
2018-02-08T12:28:41.301Z,6.2
2018-02-08T12:30:08.706Z,6.4
2018-02-08T12:31:28.521Z,6.1
2018-02-08T12:32:53.412Z,6.4
2018-02-08T12:34:13.228Z,6.2
2018-02-08T12:35:40.636Z,6.3
2018-02-08T12:37:03.003Z,6.1
2018-02-08T12:38:22.815Z,6.2
2018-02-08T12:39:45.163Z,5.7
2018-02-08T12:41:04.977Z,5.5
2018-02-08T12:42:24.816Z,5.3
2018-02-08T12:43:47.160Z,5.4
2018-02-08T12:45:06.957Z,5.7
2018-02-08T12:46:26.766Z,7
2018-02-08T12:47:46.603Z,8.8
2018-02-08T12:49:08.948Z,9.1
2018-02-08T12:50:41.475Z,8
2018-02-08T12:52:01.353Z,6.9
2018-02-08T12:53:23.690Z,5.9
2018-02-08T12:54:43.548Z,5.3
2018-02-08T12:56:03.348Z,4.4
2018-02-08T12:57:23.158Z,4.7
2018-02-08T12:58:55.638Z,5.2
2018-02-08T13:00:23.060Z,5.3
2018-02-08T13:01:45.470Z,5.5
2018-02-08T13:03:05.330Z,5.5
2018-02-08T13:04:25.136Z,5.2
2018-02-08T13:05:45.004Z,5
2018-02-08T13:07:04.818Z,4.6
2018-02-08T13:08:27.172Z,5
2018-02-08T13:09:46.976Z,6.2
2018-02-08T13:11:11.856Z,6.1
2018-02-08T13:12:31.688Z,6.6
2018-02-08T13:13:54.031Z,6.4
2018-02-08T13:15:18.937Z,7
2018-02-08T13:16:38.731Z,8
2018-02-08T13:17:58.574Z,8.4
2018-02-08T13:19:23.444Z,9.9
2018-02-08T13:20:43.268Z,11.7
2018-02-08T13:22:08.191Z,13.2
2018-02-08T13:23:28.049Z,13.1
2018-02-08T13:24:58.070Z,12.3
2018-02-08T13:26:30.546Z,12
2018-02-08T13:27:50.390Z,11.9
2018-02-08T13:29:15.285Z,11.7
2018-02-08T13:30:37.647Z,12.2
2018-02-08T13:31:57.489Z,11.8
2018-02-08T13:33:24.953Z,12.6
2018-02-08T13:34:44.768Z,13.1
2018-02-08T13:36:07.118Z,13.8
2018-02-08T13:37:34.527Z,13.5
2018-02-08T13:38:54.393Z,12.8
2018-02-08T13:40:24.366Z,13.6
2018-02-08T13:41:44.195Z,13.7
2018-02-08T13:43:09.081Z,14.6
2018-02-08T13:44:41.594Z,14.6
2018-02-08T13:46:01.483Z,13.6
2018-02-08T13:47:26.451Z,11.1
2018-02-08T13:48:46.329Z,9.5
2018-02-08T13:50:11.232Z,8.5
2018-02-08T13:51:31.118Z,7.9
2018-02-08T13:52:56.064Z,7.2
2018-02-08T13:54:15.961Z,6.5
2018-02-08T13:55:35.797Z,6.1
2018-02-08T13:56:55.616Z,6
2018-02-08T13:58:15.490Z,5.8
2018-02-08T13:59:40.383Z,5.9
2018-02-08T14:01:07.790Z,5.9
2018-02-08T14:02:30.158Z,5.8
2018-02-08T14:03:55.066Z,5.5
2018-02-08T14:05:14.877Z,5.5
2018-02-08T14:06:39.748Z,5.7
2018-02-08T14:08:02.123Z,6.1
2018-02-08T14:09:21.926Z,5.9
2018-02-08T14:10:44.268Z,5.6
2018-02-08T14:12:09.121Z,5.2
2018-02-08T14:13:28.939Z,5.1
2018-02-08T14:14:51.302Z,4.9
2018-02-08T14:16:11.164Z,4.7
2018-02-08T14:17:43.620Z,4.4
2018-02-08T14:19:13.589Z,4.1
2018-02-08T14:20:36.023Z,3.9
2018-02-08T14:21:55.895Z,4
2018-02-08T14:23:18.224Z,4.1
2018-02-08T14:24:40.589Z,3.7
2018-02-08T14:26:13.119Z,3.7
2018-02-08T14:27:32.937Z,3.4
2018-02-08T14:29:02.889Z,2.9
2018-02-08T14:30:25.264Z,2.5
2018-02-08T14:31:45.082Z,2.5
2018-02-08T14:33:04.929Z,2.5
2018-02-08T14:34:29.828Z,2.4
2018-02-08T14:35:54.698Z,2.4
2018-02-08T14:37:19.570Z,2.5
2018-02-08T14:38:39.403Z,2.7
2018-02-08T14:39:59.265Z,2.6
2018-02-08T14:41:19.076Z,2.4
2018-02-08T14:42:43.939Z,2.1
2018-02-08T14:44:08.827Z,1.7
2018-02-08T14:45:31.235Z,1.7
2018-02-08T14:46:56.127Z,1.9
2018-02-08T14:48:18.512Z,2
2018-02-08T14:49:43.441Z,2
2018-02-08T14:51:05.825Z,1.7
2018-02-08T14:52:25.644Z,1.8
2018-02-08T14:53:45.503Z,1.7
2018-02-08T14:55:05.374Z,1.8
2018-02-08T14:56:32.776Z,1.8
2018-02-08T14:57:52.616Z,1.8
2018-02-08T14:59:17.490Z,1.8
2018-02-08T15:00:37.341Z,1.6
2018-02-08T15:01:57.168Z,1.6
2018-02-08T15:03:29.635Z,1.4
2018-02-08T15:04:59.678Z,1.3
2018-02-08T15:06:24.535Z,1.5
2018-02-08T15:07:46.943Z,1.5
2018-02-08T15:09:09.275Z,1.3
2018-02-08T15:10:29.089Z,1.3
2018-02-08T15:11:59.088Z,1.1
2018-02-08T15:13:18.941Z,1
2018-02-08T15:14:38.797Z,0.9
2018-02-08T15:15:58.598Z,1
2018-02-08T15:17:18.420Z,1.1
2018-02-08T15:18:38.267Z,1.1
2018-02-08T15:20:08.185Z,1.1
2018-02-08T15:21:28.004Z,1.1
2018-02-08T15:22:47.861Z,1
2018-02-08T15:24:12.729Z,0.9
2018-02-08T15:25:37.734Z,0.9
2018-02-08T15:26:57.561Z,0.8
2018-02-08T15:28:17.433Z,0.7
2018-02-08T15:29:37.257Z,0.7
2018-02-08T15:31:07.188Z,0.8
2018-02-08T15:32:32.055Z,0.8
2018-02-08T15:33:54.452Z,0.8
2018-02-08T15:35:14.346Z,0.8
2018-02-08T15:36:36.705Z,0.5
2018-02-08T15:38:04.087Z,0.4
2018-02-08T15:39:28.965Z,0.4
2018-02-08T15:40:48.762Z,0.4
2018-02-08T15:42:08.605Z,0.4
2018-02-08T15:43:30.961Z,0.4
2018-02-08T15:44:50.796Z,0.3
2018-02-08T15:46:13.131Z,0.3
2018-02-08T15:47:38.036Z,0.2
2018-02-08T15:48:57.851Z,0.2
2018-02-08T15:50:17.688Z,0.2
2018-02-08T15:51:40.034Z,0
2018-02-08T15:53:02.392Z,-0.1
2018-02-08T15:54:22.231Z,0
2018-02-08T15:55:44.607Z,0
2018-02-08T15:57:06.981Z,0
2018-02-08T15:58:34.413Z,0
2018-02-08T15:59:56.754Z,0
2018-02-08T16:01:19.109Z,-0.1
2018-02-08T16:02:38.945Z,0
2018-02-08T16:03:58.832Z,-0.1
2018-02-08T16:05:26.335Z,-0.1
2018-02-08T16:06:48.698Z,-0.2
2018-02-08T16:08:11.089Z,0
2018-02-08T16:09:30.938Z,0.1
2018-02-08T16:10:53.312Z,-0.1
2018-02-08T16:12:20.763Z,-0.2
2018-02-08T16:13:55.807Z,-0.3
2018-02-08T16:15:38.475Z,-0.3
2018-02-08T16:16:58.357Z,-0.2
2018-02-08T16:18:38.459Z,-0.2
2018-02-08T16:20:03.376Z,-0.2
2018-02-08T16:21:30.861Z,-0.4
2018-02-08T16:22:53.218Z,-0.4
2018-02-08T16:24:15.581Z,-0.4
2018-02-08T16:25:35.469Z,-0.5
2018-02-08T16:26:55.335Z,-0.5
2018-02-08T16:28:25.282Z,-0.5
2018-02-08T16:29:50.152Z,-0.5
2018-02-08T16:31:15.052Z,-0.5
2018-02-08T16:32:34.880Z,-0.6
2018-02-08T16:33:54.742Z,-0.5
2018-02-08T16:35:14.618Z,-0.5
2018-02-08T16:36:34.451Z,-0.5
2018-02-08T16:37:59.332Z,-0.5
2018-02-08T16:39:21.703Z,-0.5
2018-02-08T16:40:41.560Z,-0.6
2018-02-08T16:42:01.430Z,-0.6
2018-02-08T16:43:23.842Z,-0.5
2018-02-08T16:44:46.244Z,-0.5
2018-02-08T16:46:13.742Z,-0.5
2018-02-08T16:47:33.574Z,-0.6
2018-02-08T16:48:53.395Z,-0.6
2018-02-08T16:50:13.215Z,-0.7
2018-02-08T16:51:35.558Z,-0.7
2018-02-08T16:52:55.440Z,-0.7
2018-02-08T16:54:15.260Z,-0.8
2018-02-08T16:55:42.739Z,-0.8
2018-02-08T16:57:07.626Z,-0.8
2018-02-08T16:58:35.092Z,-0.7
2018-02-08T16:59:54.925Z,-0.9
2018-02-08T17:01:17.302Z,-0.9
2018-02-08T17:02:39.669Z,-0.9
2018-02-08T17:03:59.485Z,-0.9
2018-02-08T17:05:34.554Z,-0.9
2018-02-08T17:06:54.393Z,-0.8
2018-02-08T17:08:16.753Z,-0.7
2018-02-08T17:09:36.606Z,-0.7
2018-02-08T17:10:56.464Z,-0.7
2018-02-08T17:12:18.875Z,-0.7
2018-02-08T17:13:41.269Z,-0.7
2018-02-08T17:15:23.924Z,-0.7
2018-02-08T17:16:43.798Z,-0.7
2018-02-08T17:18:03.647Z,-0.8
2018-02-08T17:19:31.130Z,-0.7
2018-02-08T17:20:50.995Z,-0.7
2018-02-08T17:22:26.037Z,-0.8
2018-02-08T17:23:45.884Z,-0.8
2018-02-08T17:25:08.246Z,-0.8
2018-02-08T17:26:40.775Z,-0.8
2018-02-08T17:28:00.616Z,-0.9
2018-02-08T17:29:25.540Z,-0.8
2018-02-08T17:30:45.434Z,-0.7
2018-02-08T17:32:05.269Z,-0.8
2018-02-08T17:33:32.694Z,-0.9
2018-02-08T17:34:55.104Z,-0.9
2018-02-08T17:36:14.932Z,-0.8
2018-02-08T17:37:34.754Z,-0.9
2018-02-08T17:38:54.589Z,-0.9
2018-02-08T17:40:14.408Z,-0.9
2018-02-08T17:41:36.806Z,-0.8
2018-02-08T17:43:04.224Z,-0.8
2018-02-08T17:44:24.045Z,-0.8
2018-02-08T17:45:48.989Z,-0.7
2018-02-08T17:47:08.820Z,-0.7
2018-02-08T17:48:36.266Z,-0.9
2018-02-08T17:50:13.834Z,-0.9
2018-02-08T17:51:38.735Z,-0.9
2018-02-08T17:52:58.566Z,-0.8
2018-02-08T17:54:20.997Z,-0.9
2018-02-08T17:55:40.856Z,-0.9
2018-02-08T17:57:00.717Z,-0.9
2018-02-08T17:58:23.068Z,-0.9
2018-02-08T17:59:42.924Z,-0.9
2018-02-08T18:01:07.830Z,-0.9
2018-02-08T18:02:27.652Z,-0.9
2018-02-08T18:03:47.483Z,-0.8
2018-02-08T18:05:09.881Z,-0.9
2018-02-08T18:06:29.716Z,-0.9
2018-02-08T18:07:49.561Z,-1
2018-02-08T18:09:11.962Z,-0.9
2018-02-08T18:10:34.321Z,-1
2018-02-08T18:11:54.145Z,-0.9
2018-02-08T18:13:16.544Z,-1
2018-02-08T18:14:36.449Z,-1
2018-02-08T18:16:01.367Z,-1
2018-02-08T18:17:21.211Z,-1
2018-02-08T18:18:41.082Z,-1
2018-02-08T18:20:00.928Z,-1
2018-02-08T18:21:23.349Z,-1
2018-02-08T18:22:43.171Z,-1
2018-02-08T18:24:05.512Z,-1
2018-02-08T18:25:38.042Z,-1
2018-02-08T18:26:57.880Z,-1
2018-02-08T18:28:17.714Z,-1
2018-02-08T18:29:37.540Z,-1
2018-02-08T18:30:59.949Z,-0.9
2018-02-08T18:32:24.841Z,-1
2018-02-08T18:34:09.987Z,-1
2018-02-08T18:35:32.397Z,-1.1
2018-02-08T18:36:52.218Z,-1.1
2018-02-08T18:38:14.639Z,-1.1
2018-02-08T18:39:34.462Z,-1